sensor_id;sensor_type;location;lat;lon;timestamp;noise_LAeq;noise_LA_min;noise_LA_max;noise_LA01;noise_LA95
70077;Laerm;57448;51.490;5.436;2023-07-20T00:00:36;38.48;34.87;44.10;;
70077;Laerm;57448;51.490;5.436;2023-07-20T00:03:11;37.32;34.07;42.25;;
70077;Laerm;57448;51.490;5.436;2023-07-20T00:05:37;37.74;33.76;45.81;;
70077;Laerm;57448;51.490;5.436;2023-07-20T00:08:03;38.13;35.21;50.02;;
70077;Laerm;57448;51.490;5.436;2023-07-20T00:10:28;38.08;34.97;45.73;;
70077;Laerm;57448;51.490;5.436;2023-07-20T00:12:54;38.05;33.95;47.85;;
70077;Laerm;57448;51.490;5.436;2023-07-20T00:15:20;39.16;34.57;48.57;;
70077;Laerm;57448;51.490;5.436;2023-07-20T00:17:45;36.95;33.29;46.52;;
70077;Laerm;57448;51.490;5.436;2023-07-20T00:20:11;37.36;33.76;47.32;;
70077;Laerm;57448;51.490;5.436;2023-07-20T00:22:36;36.54;33.69;42.41;;
70077;Laerm;57448;51.490;5.436;2023-07-20T00:25:02;36.53;33.73;43.45;;
70077;Laerm;57448;51.490;5.436;2023-07-20T00:27:28;37.03;33.93;45.17;;
70077;Laerm;57448;51.490;5.436;2023-07-20T00:29:53;37.91;32.88;49.88;;
70077;Laerm;57448;51.490;5.436;2023-07-20T00:32:19;37.60;32.05;47.32;;
70077;Laerm;57448;51.490;5.436;2023-07-20T00:34:44;36.22;33.00;46.53;;
70077;Laerm;57448;51.490;5.436;2023-07-20T00:37:10;36.38;32.01;44.09;;
70077;Laerm;57448;51.490;5.436;2023-07-20T00:39:36;35.36;31.91;42.01;;
70077;Laerm;57448;51.490;5.436;2023-07-20T00:42:01;35.73;32.80;43.73;;
70077;Laerm;57448;51.490;5.436;2023-07-20T00:44:27;36.75;33.38;44.89;;
70077;Laerm;57448;51.490;5.436;2023-07-20T00:46:52;37.26;33.10;50.93;;
70077;Laerm;57448;51.490;5.436;2023-07-20T00:49:18;36.34;33.76;42.05;;
70077;Laerm;57448;51.490;5.436;2023-07-20T00:51:44;38.61;34.63;45.50;;
70077;Laerm;57448;51.490;5.436;2023-07-20T00:54:09;36.78;34.35;50.57;;
70077;Laerm;57448;51.490;5.436;2023-07-20T00:56:35;38.42;33.27;57.37;;
70077;Laerm;57448;51.490;5.436;2023-07-20T00:59:01;39.27;33.69;52.92;;
70077;Laerm;57448;51.490;5.436;2023-07-20T01:01:26;37.57;33.33;45.18;;
70077;Laerm;57448;51.490;5.436;2023-07-20T01:03:52;37.78;34.34;42.87;;
70077;Laerm;57448;51.490;5.436;2023-07-20T01:09:02;37.59;34.20;47.40;;
70077;Laerm;57448;51.490;5.436;2023-07-20T01:11:43;39.03;34.55;46.77;;
70077;Laerm;57448;51.490;5.436;2023-07-20T01:14:12;38.29;34.87;44.18;;
70077;Laerm;57448;51.490;5.436;2023-07-20T01:16:39;37.81;34.20;45.45;;
70077;Laerm;57448;51.490;5.436;2023-07-20T01:19:05;39.22;33.24;54.51;;
70077;Laerm;57448;51.490;5.436;2023-07-20T01:21:35;38.99;32.78;52.67;;
70077;Laerm;57448;51.490;5.436;2023-07-20T01:24:14;37.60;33.63;50.85;;
70077;Laerm;57448;51.490;5.436;2023-07-20T01:26:53;38.20;34.86;50.87;;
70077;Laerm;57448;51.490;5.436;2023-07-20T01:31:55;37.17;33.95;53.46;;
70077;Laerm;57448;51.490;5.436;2023-07-20T01:34:22;36.91;33.35;41.69;;
70077;Laerm;57448;51.490;5.436;2023-07-20T01:36:48;36.83;33.62;52.76;;
70077;Laerm;57448;51.490;5.436;2023-07-20T01:39:15;36.12;33.05;42.96;;
70077;Laerm;57448;51.490;5.436;2023-07-20T01:41:41;36.65;33.81;40.66;;
70077;Laerm;57448;51.490;5.436;2023-07-20T01:44:06;35.41;32.60;39.35;;
70077;Laerm;57448;51.490;5.436;2023-07-20T01:46:32;37.13;33.21;42.12;;
70077;Laerm;57448;51.490;5.436;2023-07-20T01:48:58;35.95;32.52;46.24;;
70077;Laerm;57448;51.490;5.436;2023-07-20T01:51:23;37.13;32.80;41.41;;
70077;Laerm;57448;51.490;5.436;2023-07-20T01:53:49;37.16;32.66;44.32;;
70077;Laerm;57448;51.490;5.436;2023-07-20T01:56:15;36.60;33.74;42.10;;
70077;Laerm;57448;51.490;5.436;2023-07-20T01:58:40;37.42;34.72;41.61;;
70077;Laerm;57448;51.490;5.436;2023-07-20T02:01:06;35.64;32.79;40.05;;
70077;Laerm;57448;51.490;5.436;2023-07-20T02:03:31;35.57;33.22;38.65;;
70077;Laerm;57448;51.490;5.436;2023-07-20T02:05:57;37.05;34.62;41.23;;
70077;Laerm;57448;51.490;5.436;2023-07-20T02:08:23;36.47;33.96;40.06;;
70077;Laerm;57448;51.490;5.436;2023-07-20T02:10:48;37.20;34.25;47.55;;
70077;Laerm;57448;51.490;5.436;2023-07-20T02:13:14;37.00;33.80;42.49;;
70077;Laerm;57448;51.490;5.436;2023-07-20T02:15:40;37.13;33.92;41.52;;
70077;Laerm;57448;51.490;5.436;2023-07-20T02:18:05;36.35;33.54;39.91;;
70077;Laerm;57448;51.490;5.436;2023-07-20T02:20:31;36.56;33.75;39.95;;
70077;Laerm;57448;51.490;5.436;2023-07-20T02:22:57;34.87;32.51;39.13;;
70077;Laerm;57448;51.490;5.436;2023-07-20T02:25:22;35.59;32.01;39.35;;
70077;Laerm;57448;51.490;5.436;2023-07-20T02:27:48;36.36;33.99;41.34;;
70077;Laerm;57448;51.490;5.436;2023-07-20T02:30:13;36.30;33.53;40.08;;
70077;Laerm;57448;51.490;5.436;2023-07-20T02:32:39;35.73;32.83;38.36;;
70077;Laerm;57448;51.490;5.436;2023-07-20T02:35:05;36.16;33.29;41.36;;
70077;Laerm;57448;51.490;5.436;2023-07-20T02:37:30;36.56;32.75;41.82;;
70077;Laerm;57448;51.490;5.436;2023-07-20T02:39:56;36.86;33.38;41.53;;
70077;Laerm;57448;51.490;5.436;2023-07-20T02:42:22;38.03;34.87;43.19;;
70077;Laerm;57448;51.490;5.436;2023-07-20T02:44:47;37.95;35.02;43.03;;
70077;Laerm;57448;51.490;5.436;2023-07-20T02:47:13;37.50;35.19;40.31;;
70077;Laerm;57448;51.490;5.436;2023-07-20T02:49:38;37.56;34.36;41.09;;
70077;Laerm;57448;51.490;5.436;2023-07-20T02:52:04;37.71;34.16;46.04;;
70077;Laerm;57448;51.490;5.436;2023-07-20T02:54:30;44.52;33.75;59.53;;
70077;Laerm;57448;51.490;5.436;2023-07-20T02:56:55;40.45;34.60;54.56;;
70077;Laerm;57448;51.490;5.436;2023-07-20T02:59:21;39.63;33.31;50.60;;
70077;Laerm;57448;51.490;5.436;2023-07-20T03:01:47;41.11;34.86;54.48;;
70077;Laerm;57448;51.490;5.436;2023-07-20T03:04:12;40.49;35.46;52.58;;
70077;Laerm;57448;51.490;5.436;2023-07-20T03:06:38;42.51;36.92;53.62;;
70077;Laerm;57448;51.490;5.436;2023-07-20T03:09:04;39.48;37.28;43.94;;
70077;Laerm;57448;51.490;5.436;2023-07-20T03:11:30;40.75;37.15;47.21;;
70077;Laerm;57448;51.490;5.436;2023-07-20T03:13:55;40.24;35.95;47.25;;
70077;Laerm;57448;51.490;5.436;2023-07-20T03:16:21;39.62;36.55;47.97;;
70077;Laerm;57448;51.490;5.436;2023-07-20T03:18:47;46.83;37.25;61.27;;
70077;Laerm;57448;51.490;5.436;2023-07-20T03:21:12;40.02;36.56;48.33;;
70077;Laerm;57448;51.490;5.436;2023-07-20T03:23:38;41.79;38.86;50.06;;
70077;Laerm;57448;51.490;5.436;2023-07-20T03:26:04;44.42;37.77;59.55;;
70077;Laerm;57448;51.490;5.436;2023-07-20T03:28:30;44.66;37.56;62.55;;
70077;Laerm;57448;51.490;5.436;2023-07-20T03:30:55;48.92;37.43;65.40;;
70077;Laerm;57448;51.490;5.436;2023-07-20T03:33:22;51.70;39.95;64.26;;
70077;Laerm;57448;51.490;5.436;2023-07-20T03:35:48;42.12;39.11;47.09;;
70077;Laerm;57448;51.490;5.436;2023-07-20T03:38:13;41.91;39.05;45.52;;
70077;Laerm;57448;51.490;5.436;2023-07-20T03:40:39;42.59;38.43;45.69;;
70077;Laerm;57448;51.490;5.436;2023-07-20T03:43:04;43.01;39.55;47.90;;
70077;Laerm;57448;51.490;5.436;2023-07-20T03:45:30;43.90;39.88;50.34;;
70077;Laerm;57448;51.490;5.436;2023-07-20T03:47:56;43.73;40.35;49.48;;
70077;Laerm;57448;51.490;5.436;2023-07-20T03:50:21;43.94;41.33;48.61;;
70077;Laerm;57448;51.490;5.436;2023-07-20T03:52:47;43.09;40.33;53.81;;
70077;Laerm;57448;51.490;5.436;2023-07-20T03:55:12;46.05;39.98;63.18;;
70077;Laerm;57448;51.490;5.436;2023-07-20T03:57:38;44.79;39.14;55.15;;
70077;Laerm;57448;51.490;5.436;2023-07-20T04:00:04;46.69;39.59;61.43;;
70077;Laerm;57448;51.490;5.436;2023-07-20T04:02:29;44.29;39.90;55.24;;
70077;Laerm;57448;51.490;5.436;2023-07-20T04:04:55;45.37;40.70;55.18;;
70077;Laerm;57448;51.490;5.436;2023-07-20T04:07:21;44.40;40.38;54.69;;
70077;Laerm;57448;51.490;5.436;2023-07-20T04:09:46;43.86;39.80;52.70;;
70077;Laerm;57448;51.490;5.436;2023-07-20T04:12:12;43.89;40.51;51.69;;
70077;Laerm;57448;51.490;5.436;2023-07-20T04:14:37;43.29;40.30;46.99;;
70077;Laerm;57448;51.490;5.436;2023-07-20T04:17:03;44.79;40.34;63.32;;
70077;Laerm;57448;51.490;5.436;2023-07-20T04:19:29;43.75;40.04;52.11;;
70077;Laerm;57448;51.490;5.436;2023-07-20T04:21:54;43.65;40.45;53.88;;
70077;Laerm;57448;51.490;5.436;2023-07-20T04:24:20;43.61;40.53;48.09;;
70077;Laerm;57448;51.490;5.436;2023-07-20T04:26:45;43.08;40.67;46.08;;
70077;Laerm;57448;51.490;5.436;2023-07-20T04:29:11;44.54;41.51;59.98;;
70077;Laerm;57448;51.490;5.436;2023-07-20T04:31:36;52.81;41.80;76.87;;
70077;Laerm;57448;51.490;5.436;2023-07-20T04:34:02;46.15;41.46;64.48;;
70077;Laerm;57448;51.490;5.436;2023-07-20T04:36:28;44.34;42.28;47.21;;
70077;Laerm;57448;51.490;5.436;2023-07-20T04:38:53;45.10;42.27;65.02;;
70077;Laerm;57448;51.490;5.436;2023-07-20T04:41:19;44.69;42.61;46.80;;
70077;Laerm;57448;51.490;5.436;2023-07-20T04:43:44;44.25;41.33;47.18;;
70077;Laerm;57448;51.490;5.436;2023-07-20T04:46:10;44.07;41.30;48.17;;
70077;Laerm;57448;51.490;5.436;2023-07-20T04:48:36;43.85;41.21;50.10;;
70077;Laerm;57448;51.490;5.436;2023-07-20T04:51:02;43.31;40.33;56.03;;
70077;Laerm;57448;51.490;5.436;2023-07-20T04:53:28;43.51;40.46;48.73;;
70077;Laerm;57448;51.490;5.436;2023-07-20T04:55:53;43.44;41.22;55.29;;
70077;Laerm;57448;51.490;5.436;2023-07-20T04:58:19;42.95;40.73;49.04;;
70077;Laerm;57448;51.490;5.436;2023-07-20T05:00:45;43.31;40.97;47.08;;
70077;Laerm;57448;51.490;5.436;2023-07-20T05:03:11;43.13;40.43;45.95;;
70077;Laerm;57448;51.490;5.436;2023-07-20T05:05:37;44.35;42.75;50.93;;
70077;Laerm;57448;51.490;5.436;2023-07-20T05:08:03;43.66;40.46;50.78;;
70077;Laerm;57448;51.490;5.436;2023-07-20T05:10:29;43.54;41.49;46.58;;
70077;Laerm;57448;51.490;5.436;2023-07-20T05:12:54;43.40;41.27;47.05;;
70077;Laerm;57448;51.490;5.436;2023-07-20T05:15:20;43.16;40.94;46.66;;
70077;Laerm;57448;51.490;5.436;2023-07-20T05:17:46;42.51;39.72;53.81;;
70077;Laerm;57448;51.490;5.436;2023-07-20T05:20:11;42.09;39.50;49.90;;
70077;Laerm;57448;51.490;5.436;2023-07-20T05:22:37;41.59;39.80;47.50;;
70077;Laerm;57448;51.490;5.436;2023-07-20T05:25:03;44.91;39.34;65.12;;
70077;Laerm;57448;51.490;5.436;2023-07-20T05:27:28;43.97;40.05;54.06;;
70077;Laerm;57448;51.490;5.436;2023-07-20T05:29:54;43.64;41.19;51.06;;
70077;Laerm;57448;51.490;5.436;2023-07-20T05:32:19;43.77;40.45;54.45;;
70077;Laerm;57448;51.490;5.436;2023-07-20T05:34:45;42.98;39.99;50.88;;
70077;Laerm;57448;51.490;5.436;2023-07-20T05:37:11;45.54;40.66;62.47;;
70077;Laerm;57448;51.490;5.436;2023-07-20T05:39:36;42.58;40.06;47.91;;
70077;Laerm;57448;51.490;5.436;2023-07-20T05:42:02;43.40;40.90;50.66;;
70077;Laerm;57448;51.490;5.436;2023-07-20T05:44:27;45.41;41.07;61.78;;
70077;Laerm;57448;51.490;5.436;2023-07-20T05:46:53;43.38;40.63;54.86;;
70077;Laerm;57448;51.490;5.436;2023-07-20T05:49:19;42.57;40.66;47.54;;
70077;Laerm;57448;51.490;5.436;2023-07-20T05:51:44;42.82;40.81;46.28;;
70077;Laerm;57448;51.490;5.436;2023-07-20T05:54:10;42.20;40.52;44.77;;
70077;Laerm;57448;51.490;5.436;2023-07-20T05:56:35;42.10;39.37;46.52;;
70077;Laerm;57448;51.490;5.436;2023-07-20T05:59:01;43.35;39.64;51.12;;
70077;Laerm;57448;51.490;5.436;2023-07-20T06:01:26;42.94;40.38;46.99;;
70077;Laerm;57448;51.490;5.436;2023-07-20T06:03:52;50.00;41.17;62.26;;
70077;Laerm;57448;51.490;5.436;2023-07-20T06:06:18;43.57;41.05;59.10;;
70077;Laerm;57448;51.490;5.436;2023-07-20T06:08:44;43.07;41.05;49.30;;
70077;Laerm;57448;51.490;5.436;2023-07-20T06:11:09;43.93;39.56;63.85;;
70077;Laerm;57448;51.490;5.436;2023-07-20T06:13:35;44.80;41.05;62.86;;
70077;Laerm;57448;51.490;5.436;2023-07-20T06:16:01;51.36;39.89;64.48;;
70077;Laerm;57448;51.490;5.436;2023-07-20T06:18:26;42.07;39.05;48.24;;
70077;Laerm;57448;51.490;5.436;2023-07-20T06:20:52;42.46;39.70;45.10;;
70077;Laerm;57448;51.490;5.436;2023-07-20T06:23:18;41.40;38.98;45.66;;
70077;Laerm;57448;51.490;5.436;2023-07-20T06:25:44;50.67;39.41;63.15;;
70077;Laerm;57448;51.490;5.436;2023-07-20T06:28:10;49.93;39.09;61.93;;
70077;Laerm;57448;51.490;5.436;2023-07-20T06:30:35;41.47;39.18;45.73;;
70077;Laerm;57448;51.490;5.436;2023-07-20T06:33:01;41.96;39.20;53.52;;
70077;Laerm;57448;51.490;5.436;2023-07-20T06:35:26;42.25;39.51;47.88;;
70077;Laerm;57448;51.490;5.436;2023-07-20T06:37:52;42.41;40.02;46.10;;
70077;Laerm;57448;51.490;5.436;2023-07-20T06:40:18;42.42;39.89;47.29;;
70077;Laerm;57448;51.490;5.436;2023-07-20T06:42:43;41.53;39.39;44.70;;
70077;Laerm;57448;51.490;5.436;2023-07-20T06:45:09;50.37;40.36;64.50;;
70077;Laerm;57448;51.490;5.436;2023-07-20T06:47:35;42.89;40.53;46.51;;
70077;Laerm;57448;51.490;5.436;2023-07-20T06:50:00;41.34;39.29;46.90;;
70077;Laerm;57448;51.490;5.436;2023-07-20T06:52:26;42.01;39.55;55.89;;
70077;Laerm;57448;51.490;5.436;2023-07-20T06:54:51;42.59;39.50;55.10;;
70077;Laerm;57448;51.490;5.436;2023-07-20T06:57:20;41.54;39.31;49.23;;
70077;Laerm;57448;51.490;5.436;2023-07-20T06:59:45;41.33;38.95;47.53;;
70077;Laerm;57448;51.490;5.436;2023-07-20T07:02:11;41.02;37.78;54.31;;
70077;Laerm;57448;51.490;5.436;2023-07-20T07:04:37;40.12;37.61;45.69;;
70077;Laerm;57448;51.490;5.436;2023-07-20T07:07:02;40.29;37.93;48.99;;
70077;Laerm;57448;51.490;5.436;2023-07-20T07:09:28;41.22;38.52;45.46;;
70077;Laerm;57448;51.490;5.436;2023-07-20T07:11:53;41.25;38.59;45.00;;
70077;Laerm;57448;51.490;5.436;2023-07-20T07:14:19;49.14;38.26;61.51;;
70077;Laerm;57448;51.490;5.436;2023-07-20T07:16:45;43.43;38.03;55.33;;
70077;Laerm;57448;51.490;5.436;2023-07-20T07:19:11;41.51;37.94;55.21;;
70077;Laerm;57448;51.490;5.436;2023-07-20T07:21:36;41.03;37.82;51.90;;
70077;Laerm;57448;51.490;5.436;2023-07-20T07:24:02;41.17;37.62;52.66;;
70077;Laerm;57448;51.490;5.436;2023-07-20T07:26:27;40.73;38.11;48.73;;
70077;Laerm;57448;51.490;5.436;2023-07-20T07:28:53;42.31;37.52;62.11;;
70077;Laerm;57448;51.490;5.436;2023-07-20T07:31:19;42.10;36.92;63.71;;
70077;Laerm;57448;51.490;5.436;2023-07-20T07:33:44;49.79;36.38;60.82;;
70077;Laerm;57448;51.490;5.436;2023-07-20T07:36:10;40.86;36.52;56.10;;
70077;Laerm;57448;51.490;5.436;2023-07-20T07:38:35;39.18;36.15;52.67;;
70077;Laerm;57448;51.490;5.436;2023-07-20T07:41:01;38.96;36.67;42.23;;
70077;Laerm;57448;51.490;5.436;2023-07-20T07:43:27;38.75;36.35;46.59;;
70077;Laerm;57448;51.490;5.436;2023-07-20T07:45:53;40.66;36.37;52.02;;
70077;Laerm;57448;51.490;5.436;2023-07-20T07:48:19;43.82;36.30;56.35;;
70077;Laerm;57448;51.490;5.436;2023-07-20T07:50:45;40.69;36.44;55.77;;
70077;Laerm;57448;51.490;5.436;2023-07-20T07:53:10;51.54;36.62;62.84;;
70077;Laerm;57448;51.490;5.436;2023-07-20T07:55:36;50.76;35.49;63.76;;
70077;Laerm;57448;51.490;5.436;2023-07-20T07:58:01;39.39;35.92;52.30;;
70077;Laerm;57448;51.490;5.436;2023-07-20T08:00:27;40.13;34.04;59.61;;
70077;Laerm;57448;51.490;5.436;2023-07-20T08:02:52;39.13;35.09;50.72;;
70077;Laerm;57448;51.490;5.436;2023-07-20T08:05:18;39.63;34.62;54.53;;
70077;Laerm;57448;51.490;5.436;2023-07-20T08:07:44;38.17;34.44;56.64;;
70077;Laerm;57448;51.490;5.436;2023-07-20T08:10:09;37.85;34.92;53.14;;
70077;Laerm;57448;51.490;5.436;2023-07-20T08:12:35;38.63;35.30;46.38;;
70077;Laerm;57448;51.490;5.436;2023-07-20T08:15:01;38.58;34.72;48.49;;
70077;Laerm;57448;51.490;5.436;2023-07-20T08:17:26;40.15;34.72;49.37;;
70077;Laerm;57448;51.490;5.436;2023-07-20T08:19:52;36.98;34.85;44.38;;
70077;Laerm;57448;51.490;5.436;2023-07-20T08:22:17;103.20;35.08;110.46;;
70077;Laerm;57448;51.490;5.436;2023-07-20T08:24:43;108.02;37.45;112.30;;
70077;Laerm;57448;51.490;5.436;2023-07-20T08:27:09;106.81;34.91;111.78;;
70077;Laerm;57448;51.490;5.436;2023-07-20T08:29:35;101.99;37.52;109.95;;
70077;Laerm;57448;51.490;5.436;2023-07-20T08:32:01;75.31;36.22;88.78;;
70077;Laerm;57448;51.490;5.436;2023-07-20T08:34:27;38.37;35.30;46.98;;
70077;Laerm;57448;51.490;5.436;2023-07-20T08:36:52;38.11;35.26;49.57;;
70077;Laerm;57448;51.490;5.436;2023-07-20T08:39:18;40.26;34.51;64.92;;
70077;Laerm;57448;51.490;5.436;2023-07-20T08:41:43;38.06;34.16;51.64;;
70077;Laerm;57448;51.490;5.436;2023-07-20T08:44:09;36.65;34.51;45.73;;
70077;Laerm;57448;51.490;5.436;2023-07-20T08:46:35;37.65;34.65;52.74;;
70077;Laerm;57448;51.490;5.436;2023-07-20T08:49:02;38.53;34.23;62.31;;
70077;Laerm;57448;51.490;5.436;2023-07-20T08:51:28;36.02;34.54;39.34;;
70077;Laerm;57448;51.490;5.436;2023-07-20T08:53:54;36.25;34.44;45.18;;
70077;Laerm;57448;51.490;5.436;2023-07-20T08:56:20;37.85;33.97;48.80;;
70077;Laerm;57448;51.490;5.436;2023-07-20T08:58:45;52.43;34.36;69.22;;
70077;Laerm;57448;51.490;5.436;2023-07-20T09:01:11;85.41;33.91;108.42;;
70077;Laerm;57448;51.490;5.436;2023-07-20T09:03:38;50.68;34.35;64.98;;
70077;Laerm;57448;51.490;5.436;2023-07-20T09:06:03;36.68;33.94;55.85;;
70077;Laerm;57448;51.490;5.436;2023-07-20T09:08:29;50.74;34.45;65.29;;
70077;Laerm;57448;51.490;5.436;2023-07-20T09:10:55;38.20;34.81;48.66;;
70077;Laerm;57448;51.490;5.436;2023-07-20T09:13:20;37.35;34.88;52.43;;
70077;Laerm;57448;51.490;5.436;2023-07-20T09:15:46;38.82;35.33;48.90;;
70077;Laerm;57448;51.490;5.436;2023-07-20T09:18:12;46.91;35.64;63.71;;
70077;Laerm;57448;51.490;5.436;2023-07-20T09:20:48;48.53;35.12;67.16;;
70077;Laerm;57448;51.490;5.436;2023-07-20T09:23:13;50.89;36.50;67.61;;
70077;Laerm;57448;51.490;5.436;2023-07-20T09:25:39;51.22;36.71;65.76;;
70077;Laerm;57448;51.490;5.436;2023-07-20T09:28:05;38.52;36.55;44.57;;
70077;Laerm;57448;51.490;5.436;2023-07-20T09:30:31;39.71;37.74;44.09;;
70077;Laerm;57448;51.490;5.436;2023-07-20T09:32:57;40.26;37.38;54.96;;
70077;Laerm;57448;51.490;5.436;2023-07-20T09:35:23;49.69;37.20;79.97;;
70077;Laerm;57448;51.490;5.436;2023-07-20T09:37:50;39.68;37.45;49.83;;
70077;Laerm;57448;51.490;5.436;2023-07-20T09:40:16;39.51;37.26;52.35;;
70077;Laerm;57448;51.490;5.436;2023-07-20T09:42:41;40.35;36.74;57.65;;
70077;Laerm;57448;51.490;5.436;2023-07-20T09:45:07;38.09;36.34;51.32;;
70077;Laerm;57448;51.490;5.436;2023-07-20T09:47:34;39.36;36.99;54.82;;
70077;Laerm;57448;51.490;5.436;2023-07-20T09:50:01;41.79;37.25;54.44;;
70077;Laerm;57448;51.490;5.436;2023-07-20T09:52:26;39.95;37.75;49.36;;
70077;Laerm;57448;51.490;5.436;2023-07-20T09:54:52;39.43;37.69;47.26;;
70077;Laerm;57448;51.490;5.436;2023-07-20T09:57:19;40.92;37.82;50.40;;
70077;Laerm;57448;51.490;5.436;2023-07-20T09:59:46;43.21;41.11;49.33;;
70077;Laerm;57448;51.490;5.436;2023-07-20T10:02:16;42.79;40.48;49.48;;
70077;Laerm;57448;51.490;5.436;2023-07-20T10:04:45;43.22;41.07;46.65;;
70077;Laerm;57448;51.490;5.436;2023-07-20T10:07:11;102.44;40.84;111.45;;
70077;Laerm;57448;51.490;5.436;2023-07-20T10:09:38;109.74;100.12;113.13;;
70077;Laerm;57448;51.490;5.436;2023-07-20T10:12:04;110.73;102.73;114.80;;
70077;Laerm;57448;51.490;5.436;2023-07-20T10:14:31;105.79;38.68;111.04;;
70077;Laerm;57448;51.490;5.436;2023-07-20T10:17:01;41.46;37.91;49.73;;
70077;Laerm;57448;51.490;5.436;2023-07-20T10:19:47;42.51;37.61;67.45;;
70077;Laerm;57448;51.490;5.436;2023-07-20T10:22:14;49.86;37.74;65.29;;
70077;Laerm;57448;51.490;5.436;2023-07-20T10:24:44;39.13;36.39;49.03;;
70077;Laerm;57448;51.490;5.436;2023-07-20T10:27:10;50.77;38.08;65.79;;
70077;Laerm;57448;51.490;5.436;2023-07-20T10:29:36;40.40;38.20;51.94;;
70077;Laerm;57448;51.490;5.436;2023-07-20T10:32:02;42.43;38.22;59.02;;
70077;Laerm;57448;51.490;5.436;2023-07-20T10:34:28;39.95;37.32;53.69;;
70077;Laerm;57448;51.490;5.436;2023-07-20T10:36:53;48.44;37.79;59.49;;
70077;Laerm;57448;51.490;5.436;2023-07-20T10:39:22;40.50;37.94;49.93;;
70077;Laerm;57448;51.490;5.436;2023-07-20T10:41:48;51.10;38.67;64.69;;
70077;Laerm;57448;51.490;5.436;2023-07-20T10:44:14;39.72;37.28;44.14;;
70077;Laerm;57448;51.490;5.436;2023-07-20T10:46:45;39.56;37.17;44.87;;
70077;Laerm;57448;51.490;5.436;2023-07-20T10:49:11;39.33;36.82;53.35;;
70077;Laerm;57448;51.490;5.436;2023-07-20T10:51:40;40.54;38.74;45.98;;
70077;Laerm;57448;51.490;5.436;2023-07-20T10:56:41;42.35;38.50;49.29;;
70077;Laerm;57448;51.490;5.436;2023-07-20T10:59:17;46.16;38.83;60.63;;
70077;Laerm;57448;51.490;5.436;2023-07-20T11:01:43;50.33;41.43;64.12;;
70077;Laerm;57448;51.490;5.436;2023-07-20T11:04:09;43.77;40.06;57.81;;
70077;Laerm;57448;51.490;5.436;2023-07-20T11:06:35;42.54;39.61;49.60;;
70077;Laerm;57448;51.490;5.436;2023-07-20T11:09:03;41.59;39.33;51.20;;
70077;Laerm;57448;51.490;5.436;2023-07-20T11:11:30;51.31;39.29;65.73;;
70077;Laerm;57448;51.490;5.436;2023-07-20T11:16:31;42.57;40.08;51.04;;
70077;Laerm;57448;51.490;5.436;2023-07-20T11:18:58;42.17;40.03;46.60;;
70077;Laerm;57448;51.490;5.436;2023-07-20T11:21:24;42.14;39.54;46.78;;
70077;Laerm;57448;51.490;5.436;2023-07-20T11:23:50;42.47;39.53;52.45;;
70077;Laerm;57448;51.490;5.436;2023-07-20T11:26:17;42.79;39.18;50.97;;
70077;Laerm;57448;51.490;5.436;2023-07-20T11:28:42;42.80;40.31;50.03;;
70077;Laerm;57448;51.490;5.436;2023-07-20T11:31:08;42.76;40.38;49.55;;
70077;Laerm;57448;51.490;5.436;2023-07-20T11:33:34;42.12;39.02;48.09;;
70077;Laerm;57448;51.490;5.436;2023-07-20T11:35:59;41.59;38.26;61.65;;
70077;Laerm;57448;51.490;5.436;2023-07-20T11:38:25;49.44;38.17;63.59;;
70077;Laerm;57448;51.490;5.436;2023-07-20T11:40:50;39.40;36.84;45.74;;
70077;Laerm;57448;51.490;5.436;2023-07-20T11:43:16;37.93;35.94;43.43;;
70077;Laerm;57448;51.490;5.436;2023-07-20T11:45:42;48.93;36.66;64.39;;
70077;Laerm;57448;51.490;5.436;2023-07-20T11:48:12;39.62;37.10;47.82;;
70077;Laerm;57448;51.490;5.436;2023-07-20T11:50:39;48.58;37.14;60.07;;
70077;Laerm;57448;51.490;5.436;2023-07-20T11:53:05;42.26;38.74;51.19;;
70077;Laerm;57448;51.490;5.436;2023-07-20T11:55:31;43.21;39.77;59.07;;
70077;Laerm;57448;51.490;5.436;2023-07-20T11:58:00;43.10;38.28;67.90;;
70077;Laerm;57448;51.490;5.436;2023-07-20T12:00:26;39.66;37.69;45.86;;
70077;Laerm;57448;51.490;5.436;2023-07-20T12:02:53;41.22;36.92;54.52;;
70077;Laerm;57448;51.490;5.436;2023-07-20T12:05:18;49.07;35.85;63.18;;
70077;Laerm;57448;51.490;5.436;2023-07-20T12:07:44;37.46;35.57;45.30;;
70077;Laerm;57448;51.490;5.436;2023-07-20T12:10:10;38.38;35.87;47.16;;
70077;Laerm;57448;51.490;5.436;2023-07-20T12:12:40;38.81;36.26;47.52;;
70077;Laerm;57448;51.490;5.436;2023-07-20T12:15:12;40.30;37.49;48.48;;
70077;Laerm;57448;51.490;5.436;2023-07-20T12:17:41;39.49;36.83;47.83;;
70077;Laerm;57448;51.490;5.436;2023-07-20T12:20:07;39.72;37.29;58.82;;
70077;Laerm;57448;51.490;5.436;2023-07-20T12:22:37;39.45;36.87;51.21;;
70077;Laerm;57448;51.490;5.436;2023-07-20T12:25:05;43.06;37.81;68.05;;
70077;Laerm;57448;51.490;5.436;2023-07-20T12:27:31;46.60;38.81;68.97;;
70077;Laerm;57448;51.490;5.436;2023-07-20T12:29:56;44.31;39.12;59.29;;
70077;Laerm;57448;51.490;5.436;2023-07-20T12:32:22;44.99;38.85;63.71;;
70077;Laerm;57448;51.490;5.436;2023-07-20T12:34:47;40.87;38.67;50.57;;
70077;Laerm;57448;51.490;5.436;2023-07-20T12:37:13;42.80;40.10;49.12;;
70077;Laerm;57448;51.490;5.436;2023-07-20T12:39:39;42.34;40.36;46.99;;
70077;Laerm;57448;51.490;5.436;2023-07-20T12:42:04;51.07;38.86;64.13;;
70077;Laerm;57448;51.490;5.436;2023-07-20T12:44:30;47.18;38.99;72.11;;
70077;Laerm;57448;51.490;5.436;2023-07-20T12:46:56;41.48;39.31;48.04;;
70077;Laerm;57448;51.490;5.436;2023-07-20T12:49:21;46.63;40.22;62.16;;
70077;Laerm;57448;51.490;5.436;2023-07-20T12:51:47;50.67;40.83;63.68;;
70077;Laerm;57448;51.490;5.436;2023-07-20T12:54:12;42.12;39.53;48.53;;
70077;Laerm;57448;51.490;5.436;2023-07-20T12:56:38;52.09;39.65;64.37;;
70077;Laerm;57448;51.490;5.436;2023-07-20T12:59:04;46.43;40.39;60.71;;
70077;Laerm;57448;51.490;5.436;2023-07-20T13:01:29;51.04;38.81;66.80;;
70077;Laerm;57448;51.490;5.436;2023-07-20T13:03:55;38.49;36.72;46.94;;
70077;Laerm;57448;51.490;5.436;2023-07-20T13:06:20;41.27;37.12;53.30;;
70077;Laerm;57448;51.490;5.436;2023-07-20T13:08:46;46.77;37.38;61.40;;
70077;Laerm;57448;51.490;5.436;2023-07-20T13:11:12;44.27;39.14;56.92;;
70077;Laerm;57448;51.490;5.436;2023-07-20T13:13:37;42.99;40.46;58.92;;
70077;Laerm;57448;51.490;5.436;2023-07-20T13:16:03;42.70;39.88;57.04;;
70077;Laerm;57448;51.490;5.436;2023-07-20T13:18:28;43.25;40.70;46.14;;
70077;Laerm;57448;51.490;5.436;2023-07-20T13:20:54;43.10;40.88;49.40;;
70077;Laerm;57448;51.490;5.436;2023-07-20T13:23:19;42.34;39.17;52.48;;
70077;Laerm;57448;51.490;5.436;2023-07-20T13:25:45;39.98;37.46;43.65;;
70077;Laerm;57448;51.490;5.436;2023-07-20T13:28:11;41.00;38.23;51.74;;
70077;Laerm;57448;51.490;5.436;2023-07-20T13:30:36;43.61;39.81;62.83;;
70077;Laerm;57448;51.490;5.436;2023-07-20T13:33:02;41.61;39.36;53.27;;
70077;Laerm;57448;51.490;5.436;2023-07-20T13:35:27;43.20;41.04;52.19;;
70077;Laerm;57448;51.490;5.436;2023-07-20T13:37:53;44.07;41.71;51.36;;
70077;Laerm;57448;51.490;5.436;2023-07-20T13:40:19;49.03;38.25;60.57;;
70077;Laerm;57448;51.490;5.436;2023-07-20T13:42:44;50.36;38.29;63.94;;
70077;Laerm;57448;51.490;5.436;2023-07-20T13:45:10;40.41;38.51;51.16;;
70077;Laerm;57448;51.490;5.436;2023-07-20T13:47:35;40.39;37.95;44.13;;